Terminal Aerodrome Forecast
Issued by NWS

Home | Current Version | Previous Version | Text Only | Print | Product List | Glossary Off
Versions: 1 2 3 4 5 6 7 8 9 10 11 12 13 14 15 16 17 18 19 20 21 22 23 24 25 26 27 28 29 30 31 32 33 34 35 36

000
FTUS43 KGRB 262341
TAFRHI
TAF
KRHI 262341Z 2700/2724 01006KT 6SM -SHRA BR BKN025 OVC050
      TEMPO 2700/2704 2SM RA BR BKN008 BKN015
     FM270400 30008G15KT 4SM RA BR BKN012 OVC025
      TEMPO 2706/2710 1 1/2SM RA BR BKN006
     FM271400 28008G15KT P6SM VCSH BKN015 BKN035
     FM271800 26010G17KT P6SM VCSH BKN035=

USA.gov is the U.S. government's official web portal to all federal, state and local government web resources and services.